sensor_id;sensor_type;location;lat;lon;timestamp;pressure;altitude;pressure_sealevel;temperature;humidity
10348;BME280;5220;43.192;23.284;2023-02-04T00:02:09;96636.16;;;7.20;100.00
10348;BME280;5220;43.192;23.284;2023-02-04T00:04:35;96643.63;;;7.24;100.00
10348;BME280;5220;43.192;23.284;2023-02-04T00:07:02;96636.50;;;7.28;100.00
10348;BME280;5220;43.192;23.284;2023-02-04T00:09:29;96624.00;;;7.34;100.00
10348;BME280;5220;43.192;23.284;2023-02-04T00:11:55;96630.91;;;7.34;100.00
10348;BME280;5220;43.192;23.284;2023-02-04T00:14:22;96623.16;;;7.34;100.00
10348;BME280;5220;43.192;23.284;2023-02-04T00:16:50;96620.56;;;7.34;100.00
10348;BME280;5220;43.192;23.284;2023-02-04T00:19:17;96621.69;;;7.30;100.00
10348;BME280;5220;43.192;23.284;2023-02-04T00:21:43;96612.91;;;7.32;100.00
10348;BME280;5220;43.192;23.284;2023-02-04T00:24:10;96611.25;;;7.31;100.00
10348;BME280;5220;43.192;23.284;2023-02-04T00:26:37;96608.13;;;7.26;100.00
10348;BME280;5220;43.192;23.284;2023-02-04T00:29:03;96597.03;;;7.12;100.00
10348;BME280;5220;43.192;23.284;2023-02-04T00:31:30;96598.38;;;7.17;100.00
10348;BME280;5220;43.192;23.284;2023-02-04T00:33:58;96591.53;;;7.16;100.00
10348;BME280;5220;43.192;23.284;2023-02-04T00:36:25;96601.16;;;7.14;100.00
10348;BME280;5220;43.192;23.284;2023-02-04T00:38:52;96592.56;;;7.14;100.00
10348;BME280;5220;43.192;23.284;2023-02-04T00:41:18;96590.09;;;7.12;100.00
10348;BME280;5220;43.192;23.284;2023-02-04T00:43:45;96594.53;;;7.10;100.00
10348;BME280;5220;43.192;23.284;2023-02-04T00:46:12;96594.53;;;7.10;100.00
10348;BME280;5220;43.192;23.284;2023-02-04T00:48:39;96595.66;;;7.06;100.00
10348;BME280;5220;43.192;23.284;2023-02-04T00:51:07;96582.19;;;7.01;100.00
10348;BME280;5220;43.192;23.284;2023-02-04T00:53:33;96583.72;;;6.91;100.00
10348;BME280;5220;43.192;23.284;2023-02-04T00:56:00;96581.28;;;7.02;100.00
10348;BME280;5220;43.192;23.284;2023-02-04T00:58:27;96584.19;;;7.10;100.00
10348;BME280;5220;43.192;23.284;2023-02-04T01:00:53;96584.84;;;6.87;100.00
10348;BME280;5220;43.192;23.284;2023-02-04T01:03:20;96580.84;;;6.69;100.00
10348;BME280;5220;43.192;23.284;2023-02-04T01:05:47;96576.53;;;6.82;100.00
10348;BME280;5220;43.192;23.284;2023-02-04T01:08:15;96579.31;;;6.79;100.00
10348;BME280;5220;43.192;23.284;2023-02-04T01:10:41;96573.78;;;6.97;100.00
10348;BME280;5220;43.192;23.284;2023-02-04T01:13:08;96568.66;;;7.10;100.00
10348;BME280;5220;43.192;23.284;2023-02-04T01:15:35;96559.13;;;6.98;100.00
10348;BME280;5220;43.192;23.284;2023-02-04T01:18:02;96551.91;;;7.03;100.00
10348;BME280;5220;43.192;23.284;2023-02-04T01:20:29;96554.97;;;6.95;100.00
10348;BME280;5220;43.192;23.284;2023-02-04T01:22:55;96562.97;;;7.05;100.00
10348;BME280;5220;43.192;23.284;2023-02-04T01:25:23;96561.16;;;7.32;100.00
10348;BME280;5220;43.192;23.284;2023-02-04T01:27:50;96564.28;;;7.50;100.00
10348;BME280;5220;43.192;23.284;2023-02-04T01:30:17;96554.66;;;7.39;100.00
10348;BME280;5220;43.192;23.284;2023-02-04T01:32:43;96561.28;;;7.43;100.00
10348;BME280;5220;43.192;23.284;2023-02-04T01:35:10;96560.13;;;7.47;100.00
10348;BME280;5220;43.192;23.284;2023-02-04T01:37:37;96557.97;;;7.67;100.00
10348;BME280;5220;43.192;23.284;2023-02-04T01:40:04;96551.03;;;7.80;100.00
10348;BME280;5220;43.192;23.284;2023-02-04T01:42:32;96552.28;;;7.74;100.00
10348;BME280;5220;43.192;23.284;2023-02-04T01:44:59;96557.53;;;7.73;100.00
10348;BME280;5220;43.192;23.284;2023-02-04T01:47:26;96549.06;;;7.83;100.00
10348;BME280;5220;43.192;23.284;2023-02-04T01:49:54;96526.69;;;7.70;100.00
10348;BME280;5220;43.192;23.284;2023-02-04T01:52:22;96514.06;;;7.78;100.00
10348;BME280;5220;43.192;23.284;2023-02-04T01:54:49;96520.88;;;7.79;100.00
10348;BME280;5220;43.192;23.284;2023-02-04T01:57:17;96509.72;;;7.78;100.00
10348;BME280;5220;43.192;23.284;2023-02-04T01:59:46;96507.22;;;7.77;100.00
10348;BME280;5220;43.192;23.284;2023-02-04T02:02:36;96502.66;;;7.80;100.00
10348;BME280;5220;43.192;23.284;2023-02-04T02:05:04;96487.22;;;7.79;100.00
10348;BME280;5220;43.192;23.284;2023-02-04T02:07:31;96477.69;;;7.79;100.00
10348;BME280;5220;43.192;23.284;2023-02-04T02:09:58;96485.59;;;7.78;100.00
10348;BME280;5220;43.192;23.284;2023-02-04T02:12:25;96470.13;;;7.76;100.00
10348;BME280;5220;43.192;23.284;2023-02-04T02:14:53;96469.63;;;7.71;100.00
10348;BME280;5220;43.192;23.284;2023-02-04T02:17:20;96453.38;;;7.69;100.00
10348;BME280;5220;43.192;23.284;2023-02-04T02:19:46;96455.03;;;7.70;100.00
10348;BME280;5220;43.192;23.284;2023-02-04T02:22:16;96463.00;;;7.67;100.00
10348;BME280;5220;43.192;23.284;2023-02-04T02:24:46;96473.50;;;7.66;100.00
10348;BME280;5220;43.192;23.284;2023-02-04T02:27:12;96484.06;;;7.63;100.00
10348;BME280;5220;43.192;23.284;2023-02-04T02:29:40;96487.66;;;7.60;100.00
10348;BME280;5220;43.192;23.284;2023-02-04T02:32:08;96483.22;;;7.62;100.00
10348;BME280;5220;43.192;23.284;2023-02-04T02:34:37;96485.91;;;7.61;100.00
10348;BME280;5220;43.192;23.284;2023-02-04T02:37:05;96483.53;;;7.57;100.00
10348;BME280;5220;43.192;23.284;2023-02-04T02:39:33;96481.97;;;7.55;100.00
10348;BME280;5220;43.192;23.284;2023-02-04T02:42:02;96470.16;;;7.51;100.00
10348;BME280;5220;43.192;23.284;2023-02-04T02:44:29;96481.47;;;7.37;100.00
10348;BME280;5220;43.192;23.284;2023-02-04T02:46:57;96485.63;;;7.40;100.00
10348;BME280;5220;43.192;23.284;2023-02-04T02:49:24;96482.28;;;7.38;100.00
10348;BME280;5220;43.192;23.284;2023-02-04T02:51:52;96456.53;;;7.36;100.00
10348;BME280;5220;43.192;23.284;2023-02-04T02:54:21;96448.06;;;7.34;100.00
10348;BME280;5220;43.192;23.284;2023-02-04T02:56:49;96461.66;;;6.73;100.00
10348;BME280;5220;43.192;23.284;2023-02-04T02:59:17;96445.75;;;6.92;100.00
10348;BME280;5220;43.192;23.284;2023-02-04T03:01:45;96436.16;;;7.07;100.00
10348;BME280;5220;43.192;23.284;2023-02-04T03:04:14;96448.56;;;7.01;100.00
10348;BME280;5220;43.192;23.284;2023-02-04T03:06:41;96445.25;;;7.12;100.00
10348;BME280;5220;43.192;23.284;2023-02-04T03:09:08;96441.44;;;7.18;100.00
10348;BME280;5220;43.192;23.284;2023-02-04T03:11:35;96453.94;;;7.11;100.00
10348;BME280;5220;43.192;23.284;2023-02-04T03:14:02;96448.06;;;7.22;100.00
10348;BME280;5220;43.192;23.284;2023-02-04T03:16:31;96448.88;;;7.22;100.00
10348;BME280;5220;43.192;23.284;2023-02-04T03:19:02;96447.53;;;7.17;100.00
10348;BME280;5220;43.192;23.284;2023-02-04T03:21:29;96448.16;;;7.20;100.00
10348;BME280;5220;43.192;23.284;2023-02-04T03:23:56;96438.22;;;7.14;100.00
10348;BME280;5220;43.192;23.284;2023-02-04T03:26:23;96445.78;;;7.17;100.00
10348;BME280;5220;43.192;23.284;2023-02-04T03:28:51;96439.47;;;7.21;100.00
10348;BME280;5220;43.192;23.284;2023-02-04T03:31:18;96440.91;;;7.25;100.00
10348;BME280;5220;43.192;23.284;2023-02-04T03:33:46;96437.38;;;7.26;100.00
10348;BME280;5220;43.192;23.284;2023-02-04T03:36:13;96429.13;;;7.21;100.00
10348;BME280;5220;43.192;23.284;2023-02-04T03:38:40;96426.41;;;7.23;100.00
10348;BME280;5220;43.192;23.284;2023-02-04T03:41:06;96420.44;;;7.22;100.00
10348;BME280;5220;43.192;23.284;2023-02-04T03:43:33;96423.81;;;7.23;100.00
10348;BME280;5220;43.192;23.284;2023-02-04T03:46:00;96432.63;;;7.20;100.00
10348;BME280;5220;43.192;23.284;2023-02-04T03:48:27;96444.09;;;7.16;100.00
10348;BME280;5220;43.192;23.284;2023-02-04T03:50:55;96429.75;;;7.12;100.00
10348;BME280;5220;43.192;23.284;2023-02-04T03:53:21;96434.09;;;7.12;100.00
10348;BME280;5220;43.192;23.284;2023-02-04T03:55:48;96428.00;;;7.13;100.00
10348;BME280;5220;43.192;23.284;2023-02-04T03:58:15;96422.91;;;7.11;100.00
10348;BME280;5220;43.192;23.284;2023-02-04T04:00:42;96420.44;;;7.10;100.00
10348;BME280;5220;43.192;23.284;2023-02-04T04:03:09;96417.53;;;7.01;100.00
10348;BME280;5220;43.192;23.284;2023-02-04T04:05:35;96402.63;;;6.92;100.00
10348;BME280;5220;43.192;23.284;2023-02-04T04:08:04;96402.84;;;6.77;100.00
10348;BME280;5220;43.192;23.284;2023-02-04T04:10:30;96402.34;;;6.84;100.00
10348;BME280;5220;43.192;23.284;2023-02-04T04:12:57;96403.53;;;6.79;100.00
10348;BME280;5220;43.192;23.284;2023-02-04T04:15:24;96405.63;;;6.86;100.00
10348;BME280;5220;43.192;23.284;2023-02-04T04:17:50;96405.34;;;6.91;100.00
10348;BME280;5220;43.192;23.284;2023-02-04T04:20:17;96413.88;;;6.79;100.00
10348;BME280;5220;43.192;23.284;2023-02-04T04:22:44;96420.50;;;6.70;100.00
10348;BME280;5220;43.192;23.284;2023-02-04T04:25:12;96434.91;;;6.35;100.00
10348;BME280;5220;43.192;23.284;2023-02-04T04:27:39;96436.09;;;6.56;100.00
10348;BME280;5220;43.192;23.284;2023-02-04T04:30:06;96437.66;;;6.71;100.00
10348;BME280;5220;43.192;23.284;2023-02-04T04:32:33;96429.50;;;6.77;100.00
10348;BME280;5220;43.192;23.284;2023-02-04T04:34:59;96448.03;;;6.84;100.00
10348;BME280;5220;43.192;23.284;2023-02-04T04:37:26;96446.16;;;6.86;100.00
10348;BME280;5220;43.192;23.284;2023-02-04T04:39:53;96450.59;;;6.71;100.00
10348;BME280;5220;43.192;23.284;2023-02-04T04:42:21;96458.88;;;6.76;100.00
10348;BME280;5220;43.192;23.284;2023-02-04T04:44:47;96463.63;;;6.82;100.00
10348;BME280;5220;43.192;23.284;2023-02-04T04:47:14;96475.88;;;6.54;100.00
10348;BME280;5220;43.192;23.284;2023-02-04T04:49:41;96470.44;;;6.71;100.00
10348;BME280;5220;43.192;23.284;2023-02-04T04:52:07;96463.31;;;6.74;100.00
10348;BME280;5220;43.192;23.284;2023-02-04T04:54:35;96481.38;;;6.62;100.00
10348;BME280;5220;43.192;23.284;2023-02-04T04:57:01;96476.00;;;6.65;100.00
10348;BME280;5220;43.192;23.284;2023-02-04T04:59:29;96481.59;;;6.71;100.00
10348;BME280;5220;43.192;23.284;2023-02-04T05:01:56;96479.91;;;6.58;100.00
10348;BME280;5220;43.192;23.284;2023-02-04T05:04:23;96476.75;;;6.40;100.00
10348;BME280;5220;43.192;23.284;2023-02-04T05:06:49;96477.97;;;6.61;100.00
10348;BME280;5220;43.192;23.284;2023-02-04T05:09:16;96477.03;;;6.62;100.00
10348;BME280;5220;43.192;23.284;2023-02-04T05:11:43;96471.91;;;6.75;100.00
10348;BME280;5220;43.192;23.284;2023-02-04T05:14:10;96473.34;;;6.79;100.00
10348;BME280;5220;43.192;23.284;2023-02-04T05:16:38;96471.59;;;6.79;100.00
10348;BME280;5220;43.192;23.284;2023-02-04T05:19:04;96474.72;;;6.84;100.00
10348;BME280;5220;43.192;23.284;2023-02-04T05:21:31;96463.53;;;6.84;100.00
10348;BME280;5220;43.192;23.284;2023-02-04T05:23:58;96459.63;;;6.52;100.00
10348;BME280;5220;43.192;23.284;2023-02-04T05:26:24;96459.13;;;6.46;100.00
10348;BME280;5220;43.192;23.284;2023-02-04T05:28:52;96468.22;;;6.52;100.00
10348;BME280;5220;43.192;23.284;2023-02-04T05:31:18;96466.00;;;6.33;100.00
10348;BME280;5220;43.192;23.284;2023-02-04T05:33:46;96470.47;;;6.44;100.00
10348;BME280;5220;43.192;23.284;2023-02-04T05:36:13;96463.88;;;6.53;100.00
10348;BME280;5220;43.192;23.284;2023-02-04T05:38:40;96471.44;;;6.56;100.00
10348;BME280;5220;43.192;23.284;2023-02-04T05:41:07;96473.50;;;6.51;100.00
10348;BME280;5220;43.192;23.284;2023-02-04T05:43:33;96467.81;;;6.58;100.00
10348;BME280;5220;43.192;23.284;2023-02-04T05:46:00;96478.28;;;6.57;100.00
10348;BME280;5220;43.192;23.284;2023-02-04T05:48:27;96475.28;;;6.63;100.00
10348;BME280;5220;43.192;23.284;2023-02-04T05:50:56;96467.06;;;6.17;100.00
10348;BME280;5220;43.192;23.284;2023-02-04T05:53:22;96463.41;;;6.33;100.00
10348;BME280;5220;43.192;23.284;2023-02-04T05:55:49;96466.50;;;6.38;100.00
10348;BME280;5220;43.192;23.284;2023-02-04T05:58:16;96476.13;;;6.36;100.00
10348;BME280;5220;43.192;23.284;2023-02-04T06:00:42;96471.88;;;6.35;100.00
10348;BME280;5220;43.192;23.284;2023-02-04T06:03:09;96491.63;;;6.36;100.00
10348;BME280;5220;43.192;23.284;2023-02-04T06:05:37;96489.97;;;6.35;100.00
10348;BME280;5220;43.192;23.284;2023-02-04T06:08:05;96492.00;;;6.30;100.00
10348;BME280;5220;43.192;23.284;2023-02-04T06:10:32;96492.22;;;6.27;100.00
10348;BME280;5220;43.192;23.284;2023-02-04T06:12:58;96501.91;;;6.24;100.00
10348;BME280;5220;43.192;23.284;2023-02-04T06:15:25;96510.16;;;6.16;100.00
10348;BME280;5220;43.192;23.284;2023-02-04T06:17:52;96517.59;;;6.21;100.00
10348;BME280;5220;43.192;23.284;2023-02-04T06:20:19;96510.75;;;6.20;100.00
10348;BME280;5220;43.192;23.284;2023-02-04T06:22:45;96515.19;;;6.18;100.00
10348;BME280;5220;43.192;23.284;2023-02-04T06:25:17;96506.72;;;6.16;100.00
10348;BME280;5220;43.192;23.284;2023-02-04T06:27:44;96511.06;;;6.15;100.00
10348;BME280;5220;43.192;23.284;2023-02-04T06:30:11;96516.94;;;6.17;100.00
10348;BME280;5220;43.192;23.284;2023-02-04T06:32:38;96521.47;;;6.14;100.00
10348;BME280;5220;43.192;23.284;2023-02-04T06:35:05;96518.16;;;6.12;100.00
10348;BME280;5220;43.192;23.284;2023-02-04T06:37:32;96511.72;;;6.05;100.00
10348;BME280;5220;43.192;23.284;2023-02-04T06:39:59;96514.03;;;6.09;100.00
10348;BME280;5220;43.192;23.284;2023-02-04T06:42:27;96513.91;;;6.11;100.00
10348;BME280;5220;43.192;23.284;2023-02-04T06:44:53;96509.59;;;6.11;100.00
10348;BME280;5220;43.192;23.284;2023-02-04T06:47:21;96518.09;;;5.99;100.00
10348;BME280;5220;43.192;23.284;2023-02-04T06:49:48;96512.66;;;6.04;100.00
10348;BME280;5220;43.192;23.284;2023-02-04T06:52:14;96502.41;;;6.02;100.00
10348;BME280;5220;43.192;23.284;2023-02-04T06:54:41;96508.88;;;5.95;100.00
10348;BME280;5220;43.192;23.284;2023-02-04T06:57:08;96502.44;;;5.74;100.00
10348;BME280;5220;43.192;23.284;2023-02-04T06:59:38;96501.31;;;5.64;100.00
10348;BME280;5220;43.192;23.284;2023-02-04T07:02:06;96490.28;;;5.76;100.00
10348;BME280;5220;43.192;23.284;2023-02-04T07:04:33;96501.31;;;5.78;100.00
10348;BME280;5220;43.192;23.284;2023-02-04T07:07:00;96488.50;;;5.48;100.00
10348;BME280;5220;43.192;23.284;2023-02-04T07:09:27;96497.75;;;5.66;100.00
10348;BME280;5220;43.192;23.284;2023-02-04T07:11:54;96495.44;;;5.33;100.00
10348;BME280;5220;43.192;23.284;2023-02-04T07:14:20;96488.91;;;5.56;100.00
10348;BME280;5220;43.192;23.284;2023-02-04T07:16:48;96494.97;;;5.55;100.00
10348;BME280;5220;43.192;23.284;2023-02-04T07:19:15;96485.38;;;5.71;100.00
10348;BME280;5220;43.192;23.284;2023-02-04T07:21:42;96494.50;;;5.49;100.00
10348;BME280;5220;43.192;23.284;2023-02-04T07:24:08;96488.41;;;5.78;100.00
10348;BME280;5220;43.192;23.284;2023-02-04T07:26:35;96492.81;;;6.04;100.00
10348;BME280;5220;43.192;23.284;2023-02-04T07:29:02;96507.75;;;6.13;100.00
10348;BME280;5220;43.192;23.284;2023-02-04T07:31:28;96491.28;;;6.28;100.00
10348;BME280;5220;43.192;23.284;2023-02-04T07:33:57;96496.13;;;6.47;100.00
10348;BME280;5220;43.192;23.284;2023-02-04T07:36:23;96499.88;;;6.56;100.00
10348;BME280;5220;43.192;23.284;2023-02-04T07:38:51;96498.16;;;6.69;100.00
10348;BME280;5220;43.192;23.284;2023-02-04T07:41:18;96498.81;;;6.85;100.00
10348;BME280;5220;43.192;23.284;2023-02-04T07:43:45;96496.94;;;6.87;100.00
10348;BME280;5220;43.192;23.284;2023-02-04T07:46:12;96497.97;;;6.84;100.00
10348;BME280;5220;43.192;23.284;2023-02-04T07:48:39;96490.47;;;6.67;100.00
10348;BME280;5220;43.192;23.284;2023-02-04T07:51:07;96492.69;;;6.86;100.00
10348;BME280;5220;43.192;23.284;2023-02-04T07:53:34;96485.78;;;6.99;100.00
10348;BME280;5220;43.192;23.284;2023-02-04T07:56:01;96482.50;;;7.10;100.00
10348;BME280;5220;43.192;23.284;2023-02-04T07:58:28;96490.88;;;7.26;100.00
10348;BME280;5220;43.192;23.284;2023-02-04T08:00:55;96491.50;;;7.42;100.00
10348;BME280;5220;43.192;23.284;2023-02-04T08:03:21;96494.50;;;7.61;100.00
10348;BME280;5220;43.192;23.284;2023-02-04T08:05:48;96497.28;;;7.71;100.00
10348;BME280;5220;43.192;23.284;2023-02-04T08:08:16;96498.41;;;7.79;100.00
10348;BME280;5220;43.192;23.284;2023-02-04T08:10:43;96503.38;;;7.82;100.00
10348;BME280;5220;43.192;23.284;2023-02-04T08:13:10;96503.66;;;8.03;100.00
10348;BME280;5220;43.192;23.284;2023-02-04T08:15:36;96502.44;;;8.20;100.00
10348;BME280;5220;43.192;23.284;2023-02-04T08:18:03;96498.94;;;8.33;100.00
10348;BME280;5220;43.192;23.284;2023-02-04T08:20:30;96495.69;;;8.42;100.00
10348;BME280;5220;43.192;23.284;2023-02-04T08:22:57;96493.53;;;8.36;100.00
10348;BME280;5220;43.192;23.284;2023-02-04T08:25:25;96494.75;;;8.43;100.00
10348;BME280;5220;43.192;23.284;2023-02-04T08:27:53;96493.47;;;8.49;100.00
10348;BME280;5220;43.192;23.284;2023-02-04T08:30:20;96496.91;;;8.49;100.00
10348;BME280;5220;43.192;23.284;2023-02-04T08:32:46;96497.28;;;8.20;100.00
10348;BME280;5220;43.192;23.284;2023-02-04T08:35:13;96491.38;;;8.30;100.00
10348;BME280;5220;43.192;23.284;2023-02-04T08:37:40;96490.44;;;8.31;100.00
10348;BME280;5220;43.192;23.284;2023-02-04T08:40:07;96491.16;;;8.33;100.00
10348;BME280;5220;43.192;23.284;2023-02-04T08:42:35;96484.22;;;8.34;100.00
10348;BME280;5220;43.192;23.284;2023-02-04T08:45:03;96484.31;;;8.32;99.58
10348;BME280;5220;43.192;23.284;2023-02-04T08:47:30;96497.41;;;8.18;100.00
10348;BME280;5220;43.192;23.284;2023-02-04T08:49:56;96490.44;;;8.31;100.00
10348;BME280;5220;43.192;23.284;2023-02-04T08:52:23;96495.50;;;8.33;100.00
10348;BME280;5220;43.192;23.284;2023-02-04T08:54:50;96489.88;;;8.39;100.00
10348;BME280;5220;43.192;23.284;2023-02-04T08:57:16;96500.72;;;8.44;100.00
10348;BME280;5220;43.192;23.284;2023-02-04T08:59:44;96499.19;;;8.41;100.00
10348;BME280;5220;43.192;23.284;2023-02-04T09:02:11;96515.34;;;8.45;100.00
10348;BME280;5220;43.192;23.284;2023-02-04T09:04:38;96502.41;;;8.45;100.00
10348;BME280;5220;43.192;23.284;2023-02-04T09:07:05;96507.19;;;8.38;100.00
10348;BME280;5220;43.192;23.284;2023-02-04T09:09:31;96505.91;;;8.44;100.00
10348;BME280;5220;43.192;23.284;2023-02-04T09:11:58;96504.28;;;8.43;100.00
10348;BME280;5220;43.192;23.284;2023-02-04T09:14:26;96505.69;;;8.47;100.00
10348;BME280;5220;43.192;23.284;2023-02-04T09:16:54;96504.78;;;8.48;100.00
10348;BME280;5220;43.192;23.284;2023-02-04T09:19:20;96511.09;;;8.44;100.00
10348;BME280;5220;43.192;23.284;2023-02-04T09:21:50;96518.13;;;8.31;100.00
10348;BME280;5220;43.192;23.284;2023-02-04T09:24:16;96523.19;;;8.32;99.68
10348;BME280;5220;43.192;23.284;2023-02-04T09:26:43;96537.22;;;8.04;100.00
10348;BME280;5220;43.192;23.284;2023-02-04T09:29:10;96527.09;;;7.76;100.00
10348;BME280;5220;43.192;23.284;2023-02-04T09:31:36;96530.94;;;7.83;100.00
10348;BME280;5220;43.192;23.284;2023-02-04T09:34:05;96533.03;;;7.66;100.00
10348;BME280;5220;43.192;23.284;2023-02-04T09:36:31;96533.81;;;7.66;100.00
10348;BME280;5220;43.192;23.284;2023-02-04T09:39:03;96529.69;;;7.51;100.00
10348;BME280;5220;43.192;23.284;2023-02-04T09:41:30;96522.47;;;7.56;100.00
10348;BME280;5220;43.192;23.284;2023-02-04T09:43:57;96524.09;;;7.57;100.00
10348;BME280;5220;43.192;23.284;2023-02-04T09:46:26;96513.66;;;7.58;100.00
10348;BME280;5220;43.192;23.284;2023-02-04T09:48:54;96519.25;;;7.40;100.00
10348;BME280;5220;43.192;23.284;2023-02-04T09:51:26;96512.94;;;7.19;100.00
10348;BME280;5220;43.192;23.284;2023-02-04T09:53:57;96500.72;;;7.21;100.00
10348;BME280;5220;43.192;23.284;2023-02-04T09:56:29;96495.44;;;7.22;100.00
10348;BME280;5220;43.192;23.284;2023-02-04T09:58:56;96497.38;;;6.93;100.00
10348;BME280;5220;43.192;23.284;2023-02-04T10:01:23;96501.81;;;6.91;100.00
10348;BME280;5220;43.192;23.284;2023-02-04T10:03:49;96508.81;;;6.77;100.00
10348;BME280;5220;43.192;23.284;2023-02-04T10:06:18;96510.34;;;6.79;100.00
10348;BME280;5220;43.192;23.284;2023-02-04T10:08:48;96506.81;;;6.68;100.00
10348;BME280;5220;43.192;23.284;2023-02-04T10:11:16;96517.19;;;6.80;100.00
10348;BME280;5220;43.192;23.284;2023-02-04T10:13:45;96505.13;;;6.54;100.00
10348;BME280;5220;43.192;23.284;2023-02-04T10:16:16;96530.63;;;6.46;100.00
10348;BME280;5220;43.192;23.284;2023-02-04T10:18:44;96512.47;;;6.47;100.00
10348;BME280;5220;43.192;23.284;2023-02-04T10:21:14;96512.09;;;6.39;100.00
10348;BME280;5220;43.192;23.284;2023-02-04T10:23:43;96505.69;;;6.45;100.00
10348;BME280;5220;43.192;23.284;2023-02-04T10:26:13;96504.97;;;6.70;100.00
10348;BME280;5220;43.192;23.284;2023-02-04T10:28:41;96508.63;;;6.92;100.00
10348;BME280;5220;43.192;23.284;2023-02-04T10:31:29;96503.97;;;6.85;100.00
10348;BME280;5220;43.192;23.284;2023-02-04T10:34:11;96506.69;;;6.96;100.00
10348;BME280;5220;43.192;23.284;2023-02-04T10:36:40;96499.88;;;7.08;100.00
10348;BME280;5220;43.192;23.284;2023-02-04T10:39:10;96501.50;;;6.96;100.00
10348;BME280;5220;43.192;23.284;2023-02-04T10:41:43;96513.53;;;6.97;100.00
10348;BME280;5220;43.192;23.284;2023-02-04T10:44:12;96499.88;;;7.08;100.00
10348;BME280;5220;43.192;23.284;2023-02-04T10:46:39;96515.75;;;7.28;100.00
10348;BME280;5220;43.192;23.284;2023-02-04T10:49:16;96510.63;;;7.01;100.00
10348;BME280;5220;43.192;23.284;2023-02-04T10:51:44;96506.06;;;7.05;100.00
10348;BME280;5220;43.192;23.284;2023-02-04T10:54:12;96502.41;;;6.82;100.00
10348;BME280;5220;43.192;23.284;2023-02-04T10:57:06;96496.53;;;6.93;100.00
10348;BME280;5220;43.192;23.284;2023-02-04T10:59:35;96501.03;;;6.64;100.00
10348;BME280;5220;43.192;23.284;2023-02-04T11:02:25;96500.63;;;6.70;100.00
10348;BME280;5220;43.192;23.284;2023-02-04T11:04:54;96497.13;;;6.71;100.00
10348;BME280;5220;43.192;23.284;2023-02-04T11:07:21;96505.16;;;6.67;100.00
10348;BME280;5220;43.192;23.284;2023-02-04T11:09:49;96497.13;;;6.71;100.00
10348;BME280;5220;43.192;23.284;2023-02-04T11:12:22;96493.19;;;6.66;100.00
10348;BME280;5220;43.192;23.284;2023-02-04T11:14:56;96492.72;;;6.46;100.00
10348;BME280;5220;43.192;23.284;2023-02-04T11:17:28;96496.41;;;6.42;100.00
10348;BME280;5220;43.192;23.284;2023-02-04T11:19:56;96496.03;;;6.61;100.00
10348;BME280;5220;43.192;23.284;2023-02-04T11:22:40;96481.28;;;6.36;100.00
10348;BME280;5220;43.192;23.284;2023-02-04T11:25:31;96483.09;;;6.48;100.00
10348;BME280;5220;43.192;23.284;2023-02-04T11:28:00;96478.56;;;6.25;100.00
10348;BME280;5220;43.192;23.284;2023-02-04T11:30:30;96483.34;;;6.31;100.00
10348;BME280;5220;43.192;23.284;2023-02-04T11:33:01;96468.97;;;6.67;100.00
10348;BME280;5220;43.192;23.284;2023-02-04T11:35:29;96468.41;;;6.88;100.00
10348;BME280;5220;43.192;23.284;2023-02-04T11:37:57;96466.97;;;6.97;100.00
10348;BME280;5220;43.192;23.284;2023-02-04T11:40:26;96475.75;;;6.94;100.00
10348;BME280;5220;43.192;23.284;2023-02-04T11:42:59;96466.59;;;6.64;100.00
10348;BME280;5220;43.192;23.284;2023-02-04T11:45:29;96473.03;;;6.31;100.00
10348;BME280;5220;43.192;23.284;2023-02-04T11:47:58;96468.81;;;6.43;100.00
10348;BME280;5220;43.192;23.284;2023-02-04T11:50:27;96469.13;;;6.51;100.00
10348;BME280;5220;43.192;23.284;2023-02-04T11:52:56;96467.59;;;6.48;100.00
10348;BME280;5220;43.192;23.284;2023-02-04T11:55:23;96470.56;;;6.42;100.00
10348;BME280;5220;43.192;23.284;2023-02-04T11:57:52;96464.97;;;6.63;100.00
10348;BME280;5220;43.192;23.284;2023-02-04T12:00:22;96453.91;;;6.86;100.00
10348;BME280;5220;43.192;23.284;2023-02-04T12:02:50;96456.41;;;6.87;100.00
10348;BME280;5220;43.192;23.284;2023-02-04T12:05:20;96461.56;;;6.75;100.00
10348;BME280;5220;43.192;23.284;2023-02-04T12:07:47;96458.88;;;6.89;100.00
10348;BME280;5220;43.192;23.284;2023-02-04T12:10:23;96458.81;;;7.03;100.00
10348;BME280;5220;43.192;23.284;2023-02-04T12:12:52;96457.66;;;7.20;100.00
10348;BME280;5220;43.192;23.284;2023-02-04T12:15:24;96458.28;;;6.98;100.00
10348;BME280;5220;43.192;23.284;2023-02-04T12:18:02;96453.09;;;7.36;100.00
10348;BME280;5220;43.192;23.284;2023-02-04T12:20:29;96461.38;;;7.53;100.00
10348;BME280;5220;43.192;23.284;2023-02-04T12:22:56;96458.50;;;7.20;100.00
10348;BME280;5220;43.192;23.284;2023-02-04T12:25:23;96476.50;;;6.96;100.00
10348;BME280;5220;43.192;23.284;2023-02-04T12:27:51;96473.50;;;6.63;100.00
10348;BME280;5220;43.192;23.284;2023-02-04T12:30:19;96473.28;;;6.93;100.00
10348;BME280;5220;43.192;23.284;2023-02-04T12:32:47;96468.53;;;6.99;100.00
10348;BME280;5220;43.192;23.284;2023-02-04T12:35:14;96472.66;;;6.89;100.00
10348;BME280;5220;43.192;23.284;2023-02-04T12:37:41;96467.25;;;6.80;100.00
10348;BME280;5220;43.192;23.284;2023-02-04T12:40:13;96477.94;;;7.26;100.00
10348;BME280;5220;43.192;23.284;2023-02-04T12:42:40;96477.31;;;7.47;100.00
10348;BME280;5220;43.192;23.284;2023-02-04T12:45:08;96482.81;;;7.18;100.00
10348;BME280;5220;43.192;23.284;2023-02-04T12:47:35;96475.16;;;6.91;100.00
10348;BME280;5220;43.192;23.284;2023-02-04T12:50:04;96474.59;;;6.86;100.00
10348;BME280;5220;43.192;23.284;2023-02-04T12:52:31;96484.69;;;6.64;100.00
10348;BME280;5220;43.192;23.284;2023-02-04T12:54:58;96475.84;;;6.93;100.00
10348;BME280;5220;43.192;23.284;2023-02-04T12:57:25;96484.28;;;6.70;100.00
10348;BME280;5220;43.192;23.284;2023-02-04T12:59:52;96484.09;;;6.85;100.00
10348;BME280;5220;43.192;23.284;2023-02-04T13:02:22;96489.00;;;6.63;100.00
10348;BME280;5220;43.192;23.284;2023-02-04T13:04:48;96492.94;;;6.56;100.00